Time;durP1;ratioP1;P1;durP2;ratioP2;P2;SDS_P1;SDS_P2;PMS_P1;PMS_P2;Temp;Humidity;BMP_temperature;BMP_pressure;BME280_temperature;BME280_humidity;BME280_pressure;Samples;Min_cycle;Max_cycle;Signal;HPM_P1;HPM_P2
2023/07/09 00:01:36;;;;;;;12.75;7.00;;;22.20;99.90;;;;;;5101199;28;20023;-72
2023/07/09 00:04:02;;;;;;;11.68;7.38;;;22.20;99.90;;;;;;5080129;28;20528;-72
2023/07/09 00:06:28;;;;;;;13.57;7.40;;;22.20;99.90;;;;;;5081298;28;20032;-72
2023/07/09 00:08:53;;;;;;;11.10;6.20;;;22.20;99.90;;;;;;5100864;28;20028;-72
2023/07/09 00:11:19;;;;;;;12.25;6.45;;;22.20;99.90;;;;;;5089586;28;20028;-72
2023/07/09 00:13:44;;;;;;;10.75;6.25;;;22.10;99.90;;;;;;5093883;28;20077;-72
2023/07/09 00:16:16;;;;;;;12.48;7.22;;;22.10;99.90;;;;;;5074559;28;20381;-72
2023/07/09 00:18:42;;;;;;;11.30;7.32;;;22.10;99.90;;;;;;5088687;28;20042;-72
2023/07/09 00:21:08;;;;;;;11.85;7.57;;;22.10;99.90;;;;;;5074586;28;20028;-71
2023/07/09 00:23:34;;;;;;;12.32;7.70;;;22.00;99.90;;;;;;5094383;28;20035;-72
2023/07/09 00:25:59;;;;;;;11.85;7.65;;;22.00;99.90;;;;;;5086452;28;20036;-73
2023/07/09 00:28:25;;;;;;;11.07;7.38;;;22.00;99.90;;;;;;5092959;28;20107;-73
2023/07/09 00:30:50;;;;;;;11.00;6.88;;;21.90;99.90;;;;;;5097031;28;20055;-73
2023/07/09 00:33:19;;;;;;;10.90;6.47;;;21.90;99.90;;;;;;5081365;28;20039;-73
2023/07/09 00:35:46;;;;;;;9.25;6.95;;;21.90;99.90;;;;;;5068989;28;20043;-72
2023/07/09 00:38:24;;;;;;;15.65;8.48;;;21.80;99.90;;;;;;5106837;28;20034;-73
2023/07/09 00:41:03;;;;;;;10.15;6.60;;;21.80;99.90;;;;;;5104547;28;20030;-73
2023/07/09 00:43:35;;;;;;;11.50;6.22;;;21.80;99.90;;;;;;5086749;28;20047;-73
2023/07/09 00:46:19;;;;;;;11.50;6.78;;;21.80;99.90;;;;;;5088673;28;20063;-72
2023/07/09 00:48:53;;;;;;;10.73;7.13;;;21.80;99.90;;;;;;5089217;28;20024;-73
2023/07/09 00:51:21;;;;;;;11.13;6.47;;;21.80;99.90;;;;;;5089620;28;20045;-73
2023/07/09 00:53:50;;;;;;;11.45;6.35;;;21.80;99.90;;;;;;5102371;28;20024;-72
2023/07/09 00:56:28;;;;;;;15.93;7.80;;;21.80;99.90;;;;;;5095589;28;20081;-72
2023/07/09 00:58:57;;;;;;;16.27;8.15;;;21.90;99.90;;;;;;5089903;28;20513;-73
2023/07/09 01:01:23;;;;;;;13.48;7.53;;;21.80;99.90;;;;;;5088036;28;20033;-73
2023/07/09 01:03:52;;;;;;;14.30;8.02;;;21.80;99.90;;;;;;5069641;28;20036;-72
2023/07/09 01:06:24;;;;;;;12.40;8.52;;;21.80;99.90;;;;;;5098252;28;20064;-73
2023/07/09 01:08:53;;;;;;;;;;;21.90;99.90;;;;;;5094301;28;20028;-73
2023/07/09 01:11:23;;;;;;;12.90;8.52;;;21.80;99.90;;;;;;5054132;28;19912;-73
2023/07/09 01:13:52;;;;;;;13.48;7.82;;;21.80;99.90;;;;;;5100410;28;20583;-72
2023/07/09 01:16:19;;;;;;;11.95;9.05;;;21.80;99.90;;;;;;5096488;28;20016;-72
2023/07/09 01:18:44;;;;;;;12.32;8.18;;;21.80;99.90;;;;;;5113510;28;20516;-72
2023/07/09 01:21:16;;;;;;;12.90;9.02;;;21.80;99.90;;;;;;5101498;28;20031;-73
2023/07/09 01:23:46;;;;;;;;;;;21.80;99.90;;;;;;5093783;28;20423;-72
2023/07/09 01:26:13;;;;;;;11.63;7.40;;;21.80;99.90;;;;;;5108120;28;19915;-73
2023/07/09 01:28:43;;;;;;;14.43;8.43;;;21.70;99.90;;;;;;5094466;28;20028;-72
2023/07/09 01:31:11;;;;;;;21.75;9.98;;;21.70;99.90;;;;;;5094223;28;20498;-72
2023/07/09 01:33:39;;;;;;;17.35;10.23;;;21.70;99.90;;;;;;5092474;28;20059;-73
2023/07/09 01:36:08;;;;;;;15.90;9.88;;;21.60;99.90;;;;;;5089949;28;20039;-73
2023/07/09 01:38:34;;;;;;;14.45;10.07;;;21.60;99.90;;;;;;5090190;28;20380;-73
2023/07/09 01:41:00;;;;;;;16.83;9.35;;;21.50;99.90;;;;;;5107194;28;20031;-73
2023/07/09 01:43:27;;;;;;;18.08;10.80;;;21.60;99.90;;;;;;5083472;28;20047;-72
2023/07/09 01:45:57;;;;;;;15.00;10.27;;;21.60;99.90;;;;;;5093364;28;20050;-73
2023/07/09 01:48:24;;;;;;;18.92;9.85;;;21.60;99.90;;;;;;5095049;28;20397;-73
2023/07/09 01:50:51;;;;;;;17.05;10.50;;;21.50;99.90;;;;;;5074386;28;20035;-70
2023/07/09 01:53:20;;;;;;;17.63;10.55;;;21.50;99.90;;;;;;5093360;28;20393;-70
2023/07/09 01:55:46;;;;;;;15.90;10.18;;;21.50;99.90;;;;;;5105167;28;20024;-70
2023/07/09 01:58:11;;;;;;;16.75;10.35;;;21.40;99.90;;;;;;5093820;28;20023;-73
2023/07/09 02:00:41;;;;;;;15.32;9.52;;;21.40;99.90;;;;;;5102918;28;20512;-72
2023/07/09 02:03:06;;;;;;;18.55;10.95;;;21.30;99.90;;;;;;5089471;28;20027;-72
2023/07/09 02:05:32;;;;;;;15.55;9.63;;;21.20;99.90;;;;;;5087437;28;20031;-73
2023/07/09 02:07:58;;;;;;;14.80;10.50;;;21.30;99.90;;;;;;5091050;28;20020;-73
2023/07/09 02:10:24;;;;;;;16.85;10.95;;;21.20;99.90;;;;;;5073486;28;20173;-73
2023/07/09 02:12:49;;;;;;;17.58;11.05;;;21.20;99.90;;;;;;5089925;28;20107;-73
2023/07/09 02:15:15;;;;;;;15.45;10.48;;;21.10;99.90;;;;;;5096631;28;20496;-73
2023/07/09 02:17:41;;;;;;;13.18;9.75;;;21.10;99.90;;;;;;5101254;28;20111;-72
2023/07/09 02:20:09;;;;;;;16.55;10.50;;;21.00;99.90;;;;;;5093255;28;20427;-72
2023/07/09 02:22:36;;;;;;;14.70;9.85;;;21.00;99.90;;;;;;5099288;28;20350;-73
2023/07/09 02:25:02;;;;;;;16.50;10.20;;;20.90;99.90;;;;;;5089038;28;20027;-72
2023/07/09 02:27:28;;;;;;;13.23;10.13;;;20.90;99.90;;;;;;5098447;28;20020;-73
2023/07/09 02:29:54;;;;;;;15.95;10.93;;;20.90;99.90;;;;;;5073584;28;20035;-73
2023/07/09 02:32:22;;;;;;;16.35;10.38;;;20.80;99.90;;;;;;5113132;28;20162;-72
2023/07/09 02:34:52;;;;;;;16.20;10.93;;;20.80;99.90;;;;;;5102525;28;20088;-72
2023/07/09 02:37:20;;;;;;;14.75;10.43;;;20.80;99.90;;;;;;5105670;28;20016;-72
2023/07/09 02:39:45;;;;;;;18.65;10.77;;;20.70;99.90;;;;;;5110823;28;20388;-72
2023/07/09 02:42:13;;;;;;;18.45;10.57;;;20.70;99.90;;;;;;5099263;28;20020;-72
2023/07/09 02:44:39;;;;;;;16.23;11.25;;;20.70;99.90;;;;;;5089675;28;20063;-72
2023/07/09 02:47:06;;;;;;;14.90;10.75;;;20.60;99.90;;;;;;5069813;28;20024;-72
2023/07/09 02:49:31;;;;;;;19.02;12.02;;;20.60;99.90;;;;;;5099121;28;20060;-72
2023/07/09 02:51:57;;;;;;;21.35;12.57;;;20.60;99.90;;;;;;5104869;28;20598;-72
2023/07/09 02:54:22;;;;;;;18.48;12.98;;;20.50;99.90;;;;;;5105447;28;20075;-73
2023/07/09 02:56:48;;;;;;;22.00;13.32;;;20.60;99.90;;;;;;5086927;28;20051;-72
2023/07/09 02:59:14;;;;;;;21.83;14.70;;;20.60;99.90;;;;;;5094150;28;20401;-72
2023/07/09 03:01:40;;;;;;;21.02;14.27;;;20.50;99.90;;;;;;5105351;28;20031;-72
2023/07/09 03:04:05;;;;;;;24.02;15.45;;;20.50;99.90;;;;;;5090716;28;20123;-72
2023/07/09 03:06:35;;;;;;;20.30;13.82;;;20.50;99.90;;;;;;5099597;28;20032;-72
2023/07/09 03:09:01;;;;;;;19.30;13.30;;;20.50;99.90;;;;;;5090230;28;20028;-72
2023/07/09 03:11:30;;;;;;;18.52;12.38;;;20.50;99.90;;;;;;5079949;28;20047;-72
2023/07/09 03:13:57;;;;;;;18.50;11.85;;;20.40;99.90;;;;;;5070490;28;20031;-73
2023/07/09 03:16:22;;;;;;;17.23;11.60;;;20.40;99.90;;;;;;5089940;28;20024;-72
2023/07/09 03:18:48;;;;;;;14.82;10.93;;;20.40;99.90;;;;;;5088327;28;20028;-72
2023/07/09 03:21:14;;;;;;;16.25;12.75;;;20.30;99.90;;;;;;5105656;28;20035;-72
2023/07/09 03:23:39;;;;;;;19.15;12.60;;;20.30;99.90;;;;;;5082105;28;20033;-72
2023/07/09 03:26:05;;;;;;;16.95;11.85;;;20.30;99.90;;;;;;5089190;28;20024;-72
2023/07/09 03:28:31;;;;;;;20.90;12.10;;;20.30;99.90;;;;;;5100166;28;20039;-72
2023/07/09 03:30:57;;;;;;;18.10;12.43;;;20.30;99.90;;;;;;5090814;28;20039;-72
2023/07/09 03:33:24;;;;;;;17.10;11.60;;;20.30;99.90;;;;;;5091600;28;20061;-72
2023/07/09 03:35:50;;;;;;;18.23;12.98;;;20.30;99.90;;;;;;5090328;28;20017;-73
2023/07/09 03:38:16;;;;;;;21.30;14.23;;;20.30;99.90;;;;;;5078855;28;20028;-72
2023/07/09 03:40:42;;;;;;;21.00;14.20;;;20.30;99.90;;;;;;5081093;28;20359;-72
2023/07/09 03:43:09;;;;;;;18.83;14.07;;;20.20;99.90;;;;;;5089035;28;20043;-72
2023/07/09 03:45:37;;;;;;;25.42;14.02;;;20.30;99.90;;;;;;5092463;28;20370;-72
2023/07/09 03:48:04;;;;;;;17.98;13.15;;;20.30;99.90;;;;;;5069428;28;20028;-72
2023/07/09 03:50:30;;;;;;;17.33;13.20;;;20.30;99.90;;;;;;5075966;28;20421;-72
2023/07/09 03:52:55;;;;;;;20.23;14.02;;;20.30;99.90;;;;;;5097295;28;20038;-70
2023/07/09 03:55:21;;;;;;;20.00;14.90;;;20.30;99.90;;;;;;5073262;28;20052;-72
2023/07/09 03:57:47;;;;;;;19.92;14.85;;;20.40;99.90;;;;;;5085765;28;20028;-72
2023/07/09 04:00:14;;;;;;;19.25;13.57;;;20.40;99.90;;;;;;5095414;28;20080;-72
2023/07/09 04:02:40;;;;;;;17.80;13.52;;;20.40;99.90;;;;;;5091000;28;20028;-72
2023/07/09 04:05:08;;;;;;;20.98;15.02;;;20.40;99.90;;;;;;5091063;28;20385;-72
2023/07/09 04:07:34;;;;;;;23.77;15.52;;;20.50;99.90;;;;;;5073929;28;20355;-72
2023/07/09 04:09:59;;;;;;;23.40;15.77;;;20.60;99.90;;;;;;5090533;28;20020;-72
2023/07/09 04:12:25;;;;;;;20.55;15.02;;;20.50;99.90;;;;;;5091155;28;20031;-72
2023/07/09 04:14:51;;;;;;;24.17;15.77;;;20.60;99.90;;;;;;5090974;28;20016;-73
2023/07/09 04:17:16;;;;;;;20.73;14.77;;;20.70;99.90;;;;;;5090972;28;20477;-72
2023/07/09 04:19:42;;;;;;;22.27;15.63;;;20.70;99.90;;;;;;5092884;28;20032;-72
2023/07/09 04:22:10;;;;;;;20.77;15.20;;;20.70;99.90;;;;;;5111432;28;20531;-72
2023/07/09 04:24:38;;;;;;;22.67;15.30;;;20.80;99.90;;;;;;5098510;28;20036;-71
2023/07/09 04:27:04;;;;;;;20.83;15.43;;;20.80;99.90;;;;;;5082097;28;20035;-71
2023/07/09 04:29:33;;;;;;;22.20;14.98;;;20.80;99.90;;;;;;5086215;28;20020;-71
2023/07/09 04:31:59;;;;;;;21.40;15.10;;;20.90;99.90;;;;;;5089567;28;20518;-71
2023/07/09 04:34:25;;;;;;;16.13;11.88;;;20.80;99.90;;;;;;5110535;28;20024;-71
2023/07/09 04:36:50;;;;;;;20.15;14.50;;;21.00;99.90;;;;;;5074896;28;20497;-71
2023/07/09 04:39:16;;;;;;;16.98;11.27;;;21.00;99.90;;;;;;5073058;28;20034;-72
2023/07/09 04:41:41;;;;;;;17.63;11.80;;;21.00;99.90;;;;;;5066754;28;20540;-71
2023/07/09 04:44:12;;;;;;;18.13;11.50;;;21.00;99.90;;;;;;5078010;28;20040;-72
2023/07/09 04:46:38;;;;;;;17.67;12.32;;;21.00;99.90;;;;;;5091889;28;20130;-72
2023/07/09 04:49:04;;;;;;;16.80;11.52;;;21.00;99.90;;;;;;5091916;28;20048;-72
2023/07/09 04:51:29;;;;;;;20.13;13.02;;;21.10;99.90;;;;;;5071490;28;20024;-72
2023/07/09 04:53:55;;;;;;;16.73;12.88;;;21.20;99.90;;;;;;5100277;28;20473;-72
2023/07/09 04:56:21;;;;;;;20.02;13.77;;;21.20;99.90;;;;;;5094931;28;20047;-72
2023/07/09 04:58:46;;;;;;;24.13;16.08;;;21.40;99.90;;;;;;5073652;28;20052;-72
2023/07/09 05:01:12;;;;;;;20.42;15.82;;;21.50;99.90;;;;;;5082253;28;20085;-71
2023/07/09 05:03:38;;;;;;;21.60;17.48;;;21.60;99.90;;;;;;5108835;28;20404;-72
2023/07/09 05:06:04;;;;;;;26.13;16.23;;;21.80;99.90;;;;;;5092177;28;20032;-72
2023/07/09 05:08:30;;;;;;;31.38;17.73;;;22.00;99.90;;;;;;5092245;28;20036;-72
2023/07/09 05:10:57;;;;;;;22.70;15.95;;;22.40;99.90;;;;;;5074442;28;20051;-72
2023/07/09 05:13:24;;;;;;;22.63;16.08;;;22.60;99.90;;;;;;5081303;28;20039;-71
2023/07/09 05:15:50;;;;;;;25.98;16.10;;;22.80;99.90;;;;;;5089364;28;20024;-72
2023/07/09 05:18:17;;;;;;;25.40;16.85;;;23.00;99.90;;;;;;5083708;28;20020;-72
2023/07/09 05:20:43;;;;;;;21.40;15.57;;;23.20;99.90;;;;;;5074311;28;20028;-72
2023/07/09 05:23:10;;;;;;;19.77;14.88;;;23.30;99.90;;;;;;5089828;28;20067;-72
2023/07/09 05:25:36;;;;;;;21.67;15.50;;;23.60;99.90;;;;;;5075781;28;20044;-72
2023/07/09 05:28:02;;;;;;;21.33;15.20;;;23.90;99.90;;;;;;5090628;28;20037;-72
2023/07/09 05:30:28;;;;;;;20.98;14.90;;;24.10;99.90;;;;;;5090293;28;20135;-72
2023/07/09 05:32:55;;;;;;;24.08;15.98;;;24.40;99.90;;;;;;5085455;28;20115;-72
2023/07/09 05:35:21;;;;;;;20.58;13.88;;;24.60;99.90;;;;;;5093342;28;20022;-72
2023/07/09 05:37:47;;;;;;;20.10;15.40;;;24.90;99.90;;;;;;5072403;28;20028;-72
2023/07/09 05:40:12;;;;;;;21.73;15.35;;;25.10;99.90;;;;;;5070987;28;20028;-72
2023/07/09 05:42:38;;;;;;;17.50;13.80;;;25.30;99.90;;;;;;5089800;28;20043;-72
2023/07/09 05:45:04;;;;;;;19.25;16.10;;;25.40;99.90;;;;;;5086420;28;20036;-72
2023/07/09 05:47:30;;;;;;;19.80;14.40;;;25.50;99.90;;;;;;5090033;28;20032;-71
2023/07/09 05:49:55;;;;;;;22.23;16.05;;;25.60;99.90;;;;;;5091345;28;20020;-71
2023/07/09 05:52:22;;;;;;;20.85;16.13;;;25.70;99.90;;;;;;5100675;28;20032;-71
2023/07/09 05:54:52;;;;;;;20.00;15.88;;;25.80;99.90;;;;;;5091771;28;20056;-72
2023/07/09 05:57:18;;;;;;;22.25;16.40;;;25.80;99.90;;;;;;5092413;28;20110;-72
2023/07/09 05:59:43;;;;;;;20.98;16.27;;;25.90;99.90;;;;;;5098900;28;20126;-72
2023/07/09 06:02:14;;;;;;;23.48;15.80;;;25.80;99.90;;;;;;5091951;28;20031;-71
2023/07/09 06:04:39;;;;;;;20.92;15.07;;;25.80;99.90;;;;;;5092058;28;20423;-71
2023/07/09 06:07:05;;;;;;;18.42;15.43;;;25.90;99.90;;;;;;5056627;28;20107;-71
2023/07/09 06:09:31;;;;;;;19.88;16.08;;;26.00;99.90;;;;;;5090611;28;20032;-71
2023/07/09 06:11:57;;;;;;;20.60;14.95;;;26.10;99.90;;;;;;5090399;28;20106;-71
2023/07/09 06:14:23;;;;;;;21.83;14.98;;;26.20;99.90;;;;;;5089605;28;20065;-71
2023/07/09 06:16:48;;;;;;;19.08;14.63;;;26.30;99.90;;;;;;5101824;28;20024;-71
2023/07/09 06:19:14;;;;;;;17.40;13.95;;;26.40;99.90;;;;;;5092867;28;20090;-72
2023/07/09 06:21:40;;;;;;;18.52;14.18;;;26.50;99.90;;;;;;5092829;28;20024;-71
2023/07/09 06:24:08;;;;;;;18.98;13.50;;;26.60;99.90;;;;;;5092248;28;20036;-72
2023/07/09 06:26:33;;;;;;;15.57;12.75;;;26.70;99.90;;;;;;5090460;28;20048;-73
2023/07/09 06:28:59;;;;;;;20.25;12.40;;;26.70;99.90;;;;;;5074541;28;20058;-73
2023/07/09 06:31:24;;;;;;;14.10;12.35;;;26.90;99.90;;;;;;5092582;28;20447;-72
2023/07/09 06:33:51;;;;;;;23.92;13.38;;;27.00;99.90;;;;;;5092363;28;20032;-72
2023/07/09 06:36:17;;;;;;;18.20;12.45;;;27.10;99.90;;;;;;5074355;28;20047;-72
2023/07/09 06:38:44;;;;;;;15.75;12.13;;;27.30;99.90;;;;;;5084962;28;20367;-70
2023/07/09 06:41:10;;;;;;;19.73;14.10;;;27.30;99.90;;;;;;5092044;28;20103;-70
2023/07/09 06:43:38;;;;;;;16.73;12.52;;;27.30;99.90;;;;;;5091759;28;20169;-70
2023/07/09 06:46:04;;;;;;;16.08;11.85;;;27.40;99.90;;;;;;5092305;28;20405;-73
2023/07/09 06:48:30;;;;;;;16.15;11.68;;;27.40;99.90;;;;;;5092252;28;20063;-70
2023/07/09 06:50:57;;;;;;;19.30;11.32;;;27.40;99.90;;;;;;5091871;28;20048;-71
2023/07/09 06:53:23;;;;;;;15.93;10.60;;;27.50;99.90;;;;;;5089714;28;20042;-70
2023/07/09 06:55:49;;;;;;;18.05;11.85;;;27.50;99.90;;;;;;5092012;28;20103;-71
2023/07/09 06:58:18;;;;;;;13.20;10.57;;;27.60;99.90;;;;;;5092248;28;20055;-71
2023/07/09 07:00:45;;;;;;;14.40;10.60;;;27.70;99.90;;;;;;5088301;28;20120;-71
2023/07/09 07:03:11;;;;;;;13.90;9.85;;;27.80;99.90;;;;;;5091126;28;20452;-70
2023/07/09 07:05:36;;;;;;;13.18;10.23;;;27.90;99.90;;;;;;5093542;28;20023;-71
2023/07/09 07:08:03;;;;;;;14.30;9.30;;;28.00;99.90;;;;;;5091923;28;20036;-70
2023/07/09 07:10:29;;;;;;;13.38;9.27;;;28.00;99.90;;;;;;5091729;28;20035;-71
2023/07/09 07:12:55;;;;;;;14.85;9.35;;;28.10;99.90;;;;;;5091726;28;20050;-73
2023/07/09 07:15:21;;;;;;;15.75;9.65;;;28.20;99.90;;;;;;5084354;28;20048;-71
2023/07/09 07:17:47;;;;;;;11.65;8.15;;;28.30;99.90;;;;;;5081583;28;20046;-71
2023/07/09 07:20:14;;;;;;;14.85;8.82;;;28.30;99.90;;;;;;5088974;28;20024;-72
2023/07/09 07:22:39;;;;;;;16.33;8.10;;;28.40;99.90;;;;;;5091205;28;20020;-72
2023/07/09 07:25:06;;;;;;;13.80;7.68;;;28.50;99.90;;;;;;5083605;28;20033;-72
2023/07/09 07:27:32;;;;;;;12.68;7.88;;;28.60;99.90;;;;;;5085118;28;20493;-72
2023/07/09 07:29:57;;;;;;;10.98;6.85;;;28.70;99.90;;;;;;5091672;28;20098;-72
2023/07/09 07:32:23;;;;;;;16.67;8.40;;;28.80;99.80;;;;;;5091687;28;20061;-72
2023/07/09 07:34:49;;;;;;;11.65;7.78;;;28.80;99.00;;;;;;5090079;28;20020;-71
2023/07/09 07:37:21;;;;;;;12.18;7.72;;;28.90;98.70;;;;;;5073380;28;20020;-73
2023/07/09 07:39:48;;;;;;;10.10;7.28;;;29.10;98.20;;;;;;5073167;28;20070;-73
2023/07/09 07:42:13;;;;;;;11.50;7.50;;;29.20;97.90;;;;;;5091367;28;20667;-72
2023/07/09 07:44:49;;;;;;;10.25;7.63;;;29.20;97.50;;;;;;5090588;28;20074;-72
2023/07/09 07:47:14;;;;;;;10.10;7.20;;;29.40;97.20;;;;;;5091881;28;20052;-73
2023/07/09 07:49:40;;;;;;;14.60;7.72;;;29.50;97.00;;;;;;5091452;28;20464;-71
2023/07/09 07:52:06;;;;;;;13.30;6.95;;;29.50;96.60;;;;;;5091290;28;20028;-71
2023/07/09 07:54:32;;;;;;;9.15;6.65;;;29.60;96.20;;;;;;5090625;28;20016;-73
2023/07/09 07:56:58;;;;;;;9.15;6.30;;;29.60;95.80;;;;;;5072940;28;20035;-71
2023/07/09 07:59:24;;;;;;;10.43;6.90;;;29.70;96.00;;;;;;5071660;28;20518;-72
2023/07/09 08:01:50;;;;;;;12.80;7.38;;;29.70;95.50;;;;;;5090653;28;20119;-72
2023/07/09 08:04:16;;;;;;;11.65;6.43;;;29.90;95.30;;;;;;5089743;28;20032;-72
2023/07/09 08:06:41;;;;;;;11.45;7.30;;;30.00;94.90;;;;;;5091373;28;20031;-72
2023/07/09 08:09:07;;;;;;;9.30;6.03;;;30.00;94.50;;;;;;5090768;28;20430;-72
2023/07/09 08:11:33;;;;;;;10.52;6.50;;;30.20;94.30;;;;;;5090939;28;20500;-72
2023/07/09 08:13:59;;;;;;;8.85;6.63;;;30.30;94.00;;;;;;5089928;28;20024;-73
2023/07/09 08:16:24;;;;;;;9.80;6.45;;;30.30;93.90;;;;;;5089107;28;20032;-71
2023/07/09 08:18:51;;;;;;;8.98;5.97;;;30.40;93.60;;;;;;5085270;28;20039;-72
2023/07/09 08:21:17;;;;;;;8.90;5.57;;;30.50;93.60;;;;;;5077624;28;20035;-71
2023/07/09 08:23:43;;;;;;;10.63;6.03;;;30.60;93.40;;;;;;5097528;28;20405;-71
2023/07/09 08:26:09;;;;;;;11.80;6.05;;;30.60;93.50;;;;;;5079057;28;20027;-70
2023/07/09 08:28:35;;;;;;;8.30;5.95;;;30.80;94.00;;;;;;5078888;28;20031;-72
2023/07/09 08:31:00;;;;;;;9.63;6.25;;;30.90;93.60;;;;;;5097141;28;20027;-72
2023/07/09 08:33:26;;;;;;;8.98;6.40;;;31.10;92.80;;;;;;5097629;28;20016;-72
2023/07/09 08:35:53;;;;;;;7.85;5.68;;;31.10;92.30;;;;;;5078783;28;20031;-72
2023/07/09 08:38:19;;;;;;;13.43;6.10;;;31.20;92.00;;;;;;5078452;28;20035;-71
2023/07/09 08:41:04;;;;;;;11.75;6.60;;;31.20;91.50;;;;;;5097367;28;20028;-72
2023/07/09 08:43:45;;;;;;;8.98;5.82;;;31.30;91.50;;;;;;5097565;28;20036;-72
2023/07/09 08:46:54;;;;;;;10.93;6.35;;;31.40;91.60;;;;;;5097451;28;20027;-72
2023/07/09 08:49:43;;;;;;;10.00;6.53;;;31.50;91.20;;;;;;5096948;28;20027;-72
2023/07/09 08:52:58;;;;;;;11.00;6.28;;;31.70;90.70;;;;;;5096657;28;20031;-72
2023/07/09 08:55:29;;;;;;;10.70;6.28;;;31.70;90.70;;;;;;5020933;28;20047;-72
2023/07/09 08:58:00;;;;;;;8.17;6.17;;;31.80;90.40;;;;;;5097034;28;20473;-73
2023/07/09 09:00:39;;;;;;;9.75;6.43;;;31.90;90.00;;;;;;5077982;28;20039;-71
2023/07/09 09:03:11;;;;;;;9.75;5.65;;;31.90;89.50;;;;;;5096908;28;20032;-73
2023/07/09 09:05:41;;;;;;;9.65;6.22;;;32.00;88.30;;;;;;5090176;28;20046;-73
2023/07/09 09:08:29;;;;;;;10.02;5.70;;;32.10;87.00;;;;;;5074337;28;20391;-72
2023/07/09 09:11:14;;;;;;;14.43;6.35;;;32.20;85.00;;;;;;5084815;28;20073;-74
2023/07/09 09:13:42;;;;;;;8.82;5.28;;;32.20;84.00;;;;;;5092427;28;20496;-74
2023/07/09 09:16:22;;;;;;;7.15;4.90;;;32.30;84.90;;;;;;5089602;28;20051;-74
2023/07/09 09:18:49;;;;;;;9.98;5.00;;;32.40;82.40;;;;;;5092539;28;20035;-73
2023/07/09 09:21:24;;;;;;;11.30;5.40;;;32.50;82.20;;;;;;5096044;28;20043;-74
2023/07/09 09:23:54;;;;;;;9.32;5.10;;;32.60;80.80;;;;;;5096182;28;20028;-74
2023/07/09 09:26:34;;;;;;;9.20;5.55;;;32.60;80.90;;;;;;5055944;28;20031;-73
2023/07/09 09:29:00;;;;;;;8.70;4.88;;;32.80;80.70;;;;;;5072062;28;20051;-74
2023/07/09 09:31:27;;;;;;;8.55;4.88;;;32.90;79.30;;;;;;5075825;28;20028;-74
2023/07/09 09:33:53;;;;;;;8.73;5.80;;;33.00;78.80;;;;;;5068264;28;20033;-74
2023/07/09 09:36:25;;;;;;;11.85;5.30;;;33.10;77.60;;;;;;5073513;28;20082;-74
2023/07/09 09:38:51;;;;;;;8.60;5.72;;;33.10;76.50;;;;;;5050776;28;20482;-74
2023/07/09 09:41:21;;;;;;;7.22;4.82;;;33.20;75.40;;;;;;5066995;28;20047;-74
2023/07/09 09:43:48;;;;;;;7.75;5.57;;;33.20;75.60;;;;;;5064546;28;20028;-73
2023/07/09 09:46:20;;;;;;;8.25;4.93;;;33.20;76.50;;;;;;5057735;28;20056;-73
2023/07/09 09:48:48;;;;;;;15.38;5.90;;;33.30;76.50;;;;;;5062597;28;20029;-73
2023/07/09 09:51:15;;;;;;;7.07;5.05;;;33.40;75.70;;;;;;5069464;28;20531;-74
2023/07/09 09:53:45;;;;;;;10.90;4.80;;;33.40;75.50;;;;;;5064029;28;23224;-74
2023/07/09 09:56:26;;;;;;;7.50;5.18;;;33.60;75.20;;;;;;5054997;28;20017;-74
2023/07/09 09:58:54;;;;;;;9.20;5.47;;;33.70;75.80;;;;;;5071650;28;20045;-74
2023/07/09 10:01:22;;;;;;;9.60;5.55;;;33.80;75.50;;;;;;5066928;28;20448;-74
2023/07/09 10:03:55;;;;;;;9.25;5.63;;;33.90;74.60;;;;;;5063967;28;20036;-74
2023/07/09 10:06:35;;;;;;;10.45;5.53;;;33.90;73.00;;;;;;5065517;28;20020;-74
2023/07/09 10:09:47;;;;;;;7.40;5.45;;;33.90;72.50;;;;;;5069719;28;20020;-74
2023/07/09 10:12:49;;;;;;;8.80;5.47;;;33.80;72.30;;;;;;4987469;28;20515;-74
2023/07/09 10:15:26;;;;;;;12.75;5.90;;;33.80;72.70;;;;;;5068132;28;20028;-74
2023/07/09 10:18:03;;;;;;;9.45;5.68;;;33.90;72.10;;;;;;5069273;28;20025;-74
2023/07/09 10:20:34;;;;;;;8.43;4.90;;;33.90;70.50;;;;;;5072966;28;20051;-74
2023/07/09 10:23:21;;;;;;;8.50;5.15;;;34.00;71.00;;;;;;5070477;28;20025;-75
2023/07/09 10:26:20;;;;;;;8.65;4.80;;;34.00;70.30;;;;;;5069558;28;20402;-73
2023/07/09 10:28:57;;;;;;;6.45;4.03;;;34.10;70.50;;;;;;5066545;28;20025;-73
2023/07/09 10:31:41;;;;;;;5.90;5.00;;;34.20;70.50;;;;;;5070794;28;20385;-73
2023/07/09 10:34:33;;;;;;;6.57;4.57;;;34.40;70.70;;;;;;5070613;28;20017;-74
2023/07/09 10:37:24;;;;;;;6.80;4.05;;;34.50;69.70;;;;;;5068420;28;20028;-73
2023/07/09 10:39:57;;;;;;;4.28;3.00;;;34.60;69.40;;;;;;5069730;28;20483;-74
2023/07/09 10:42:45;;;;;;;8.90;4.03;;;34.70;68.20;;;;;;5066584;28;20139;-74
2023/07/09 10:45:21;;;;;;;6.70;4.45;;;34.70;67.70;;;;;;5064847;28;20041;-74
2023/07/09 10:47:56;;;;;;;5.88;4.00;;;34.70;66.40;;;;;;5068869;28;20021;-74
2023/07/09 10:50:33;;;;;;;7.70;4.70;;;34.70;65.70;;;;;;5068836;28;20032;-73
2023/07/09 10:53:10;;;;;;;5.82;3.65;;;34.60;65.40;;;;;;5071871;28;20362;-74
2023/07/09 10:55:56;;;;;;;7.15;3.53;;;34.60;65.30;;;;;;5052402;28;20024;-74
2023/07/09 10:58:49;;;;;;;4.43;2.83;;;34.70;65.10;;;;;;5052919;28;20045;-75
2023/07/09 11:01:15;;;;;;;6.35;3.20;;;35.00;64.80;;;;;;5069995;28;20042;-73
2023/07/09 11:03:59;;;;;;;7.88;3.17;;;35.10;64.20;;;;;;5073280;28;20032;-75
2023/07/09 11:06:44;;;;;;;4.03;3.50;;;35.30;63.60;;;;;;5052892;28;20032;-73
2023/07/09 11:09:29;;;;;;;8.82;3.33;;;35.40;62.80;;;;;;5069978;28;20036;-75
2023/07/09 11:11:58;;;;;;;6.13;3.53;;;35.50;62.50;;;;;;5059851;28;20067;-74
2023/07/09 11:14:43;;;;;;;8.38;3.42;;;35.50;62.30;;;;;;5067032;28;20031;-74
2023/07/09 11:17:15;;;;;;;6.10;3.60;;;35.60;62.20;;;;;;5053847;28;20032;-74
2023/07/09 11:19:43;;;;;;;6.72;3.92;;;35.70;62.90;;;;;;5071990;28;20111;-74
2023/07/09 11:22:17;;;;;;;5.70;3.58;;;35.90;62.30;;;;;;5069413;28;20020;-74
2023/07/09 11:24:50;;;;;;;6.28;3.10;;;36.00;60.90;;;;;;5068598;28;20370;-74
2023/07/09 11:27:24;;;;;;;6.55;3.63;;;36.10;60.80;;;;;;5071807;28;20021;-72
2023/07/09 11:30:02;;;;;;;4.25;2.67;;;36.10;60.40;;;;;;5071466;28;20028;-74
2023/07/09 11:32:28;;;;;;;7.88;3.67;;;36.10;61.00;;;;;;5068188;28;20031;-73
2023/07/09 11:35:05;;;;;;;5.78;3.35;;;36.10;61.00;;;;;;5068417;28;20028;-73
2023/07/09 11:37:30;;;;;;;7.07;3.13;;;36.30;59.90;;;;;;5064649;28;20386;-73
2023/07/09 11:40:10;;;;;;;5.43;2.78;;;36.30;58.60;;;;;;5051689;28;20036;-73
2023/07/09 11:42:57;;;;;;;4.32;2.50;;;36.20;58.50;;;;;;5071489;28;20024;-73
2023/07/09 11:45:27;;;;;;;5.18;3.47;;;36.20;58.70;;;;;;5070983;28;20047;-73
2023/07/09 11:48:15;;;;;;;4.75;2.80;;;36.20;58.50;;;;;;5069132;28;20028;-73
2023/07/09 11:50:47;;;;;;;5.00;2.75;;;36.20;58.60;;;;;;5069211;28;20025;-74
2023/07/09 11:53:54;;;;;;;4.47;2.70;;;36.20;60.10;;;;;;5057708;28;20498;-74
2023/07/09 11:56:25;;;;;;;4.95;2.33;;;36.00;59.70;;;;;;5050297;28;20041;-74
2023/07/09 11:58:53;;;;;;;7.32;2.80;;;35.90;59.30;;;;;;5053600;28;20513;-74
2023/07/09 12:01:23;;;;;;;5.40;2.85;;;35.90;59.60;;;;;;5067646;28;20105;-74
2023/07/09 12:03:50;;;;;;;8.50;3.17;;;35.70;60.50;;;;;;5066743;28;20043;-73
2023/07/09 12:06:24;;;;;;;4.80;2.38;;;35.60;60.70;;;;;;5051190;28;20078;-74
2023/07/09 12:08:51;;;;;;;6.28;3.13;;;35.50;61.40;;;;;;5051797;28;20104;-75
2023/07/09 12:11:34;;;;;;;8.32;2.92;;;35.40;61.40;;;;;;5061963;28;20024;-74
2023/07/09 12:14:08;;;;;;;6.47;3.78;;;35.30;61.70;;;;;;5049957;28;20031;-73
2023/07/09 12:16:46;;;;;;;5.68;3.97;;;35.20;63.00;;;;;;5059673;28;20108;-73
2023/07/09 12:19:14;;;;;;;8.20;4.28;;;35.10;64.40;;;;;;5053632;28;20082;-74
2023/07/09 12:21:44;;;;;;;5.53;3.95;;;35.00;65.00;;;;;;5066241;28;20060;-74
2023/07/09 12:24:22;;;;;;;6.60;3.47;;;34.90;65.20;;;;;;5047829;28;20039;-74
2023/07/09 12:27:00;;;;;;;6.55;4.13;;;34.70;65.20;;;;;;5064690;28;20378;-75
2023/07/09 12:29:26;;;;;;;6.82;4.38;;;34.60;66.30;;;;;;5059598;28;20020;-74
2023/07/09 12:31:52;;;;;;;5.32;3.85;;;34.60;66.70;;;;;;5056339;28;20024;-74
2023/07/09 12:34:18;;;;;;;5.70;3.47;;;34.50;66.20;;;;;;5068464;28;20481;-73
2023/07/09 12:37:01;;;;;;;6.45;3.47;;;34.50;66.10;;;;;;5060696;28;20060;-75
2023/07/09 12:39:31;;;;;;;5.78;3.65;;;34.50;66.10;;;;;;5047024;28;20028;-74
2023/07/09 12:42:15;;;;;;;10.95;4.07;;;34.40;66.80;;;;;;5069330;28;20024;-74
2023/07/09 12:44:41;;;;;;;5.10;3.60;;;34.40;67.50;;;;;;5067452;28;20032;-75
2023/07/09 12:47:15;;;;;;;4.90;3.03;;;34.40;67.50;;;;;;5060167;28;20040;-74
2023/07/09 12:49:44;;;;;;;3.92;2.75;;;34.40;67.00;;;;;;5062850;28;20025;-74